Time;durP1;ratioP1;P1;durP2;ratioP2;P2;SDS_P1;SDS_P2;PMS_P1;PMS_P2;Temp;Humidity;BMP_temperature;BMP_pressure;BME280_temperature;BME280_humidity;BME280_pressure;Samples;Min_cycle;Max_cycle;Signal;HPM_P1;HPM_P2
2023/05/31 00:01:08;;;;;;;5.97;1.90;;;;;;;;;;5043016;28;20258;-79
2023/05/31 00:03:33;;;;;;;5.07;2.00;;;;;;;;;;5061828;28;20047;-79
2023/05/31 00:05:59;;;;;;;5.88;2.00;;;;;;;;;;5062149;28;20029;-79
2023/05/31 00:08:24;;;;;;;3.75;1.65;;;;;;;;;;5044210;28;20024;-78
2023/05/31 00:10:49;;;;;;;4.37;1.83;;;;;;;;;;5044627;28;20029;-79
2023/05/31 00:13:14;;;;;;;3.47;1.87;;;;;;;;;;5062002;28;20273;-77
2023/05/31 00:15:40;;;;;;;3.70;2.00;;;;;;;;;;5062382;28;20262;-78
2023/05/31 00:18:05;;;;;;;6.00;2.33;;;;;;;;;;5041882;28;20301;-77
2023/05/31 00:20:30;;;;;;;4.67;1.90;;;;;;;;;;5040968;28;20388;-77
2023/05/31 00:22:56;;;;;;;7.07;2.07;;;;;;;;;;5064562;28;20606;-79
2023/05/31 00:25:21;;;;;;;2.67;1.70;;;;;;;;;;5065391;28;20692;-79
2023/05/31 00:27:46;;;;;;;4.43;1.83;;;;;;;;;;5047047;28;20757;-79
2023/05/31 00:30:12;;;;;;;4.33;1.80;;;;;;;;;;5061825;28;20123;-79
2023/05/31 00:32:37;;;;;;;4.15;1.80;;;;;;;;;;5064652;28;20289;-79
2023/05/31 00:35:03;;;;;;;6.10;2.00;;;;;;;;;;5048298;28;20021;-79
2023/05/31 00:37:28;;;;;;;5.63;2.05;;;;;;;;;;5065405;28;20277;-79
2023/05/31 00:39:53;;;;;;;4.37;1.93;;;;;;;;;;5065380;28;20025;-80
2023/05/31 00:42:19;;;;;;;4.18;1.60;;;;;;;;;;5064226;28;20343;-79
2023/05/31 00:44:44;;;;;;;5.10;2.30;;;;;;;;;;5065901;28;20511;-78
2023/05/31 00:47:09;;;;;;;3.20;1.90;;;;;;;;;;5066461;28;20021;-78
2023/05/31 00:49:35;;;;;;;5.07;2.00;;;;;;;;;;5065608;28;20025;-78
2023/05/31 00:52:00;;;;;;;6.05;1.88;;;;;;;;;;5063210;28;20041;-80
2023/05/31 00:54:26;;;;;;;4.20;1.95;;;;;;;;;;5062329;28;20024;-80
2023/05/31 00:56:52;;;;;;;4.38;1.98;;;;;;;;;;5060869;28;20020;-78
2023/05/31 00:59:17;;;;;;;8.45;2.03;;;;;;;;;;5060479;28;20031;-78
2023/05/31 01:01:42;;;;;;;4.43;2.05;;;;;;;;;;5060475;28;20027;-78
2023/05/31 01:04:08;;;;;;;4.60;2.10;;;;;;;;;;5060608;28;20100;-78
2023/05/31 01:06:34;;;;;;;3.95;1.92;;;;;;;;;;5060904;28;20464;-79
2023/05/31 01:09:05;;;;;;;3.50;1.80;;;;;;;;;;5046053;28;20396;-79
2023/05/31 01:11:55;;;;;;;3.33;1.80;;;;;;;;;;5062280;28;20024;-80
2023/05/31 01:14:28;;;;;;;4.55;1.90;;;;;;;;;;5059399;28;20024;-78
2023/05/31 01:17:04;;;;;;;3.55;1.90;;;;;;;;;;5059891;28;20052;-78
2023/05/31 01:19:42;;;;;;;3.92;2.15;;;;;;;;;;5059426;28;20032;-78
2023/05/31 01:22:41;;;;;;;3.45;1.95;;;;;;;;;;5041836;28;20512;-80
2023/05/31 01:25:25;;;;;;;4.32;1.98;;;;;;;;;;5059146;28;20051;-78
2023/05/31 01:27:53;;;;;;;3.03;2.00;;;;;;;;;;5041937;28;20021;-78
2023/05/31 01:30:20;;;;;;;4.43;1.83;;;;;;;;;;5059724;28;20044;-78
2023/05/31 01:32:47;;;;;;;5.40;2.05;;;;;;;;;;5057403;28;20032;-77
2023/05/31 01:35:13;;;;;;;5.38;2.05;;;;;;;;;;5063865;28;20036;-79
2023/05/31 01:37:38;;;;;;;3.85;1.98;;;;;;;;;;5064823;28;20484;-79
2023/05/31 01:40:05;;;;;;;4.20;1.97;;;;;;;;;;5064812;28;20085;-80
2023/05/31 01:42:30;;;;;;;4.47;2.00;;;;;;;;;;5064424;28;20264;-79
2023/05/31 01:44:57;;;;;;;4.32;2.58;;;;;;;;;;5064500;28;20400;-79
2023/05/31 01:47:23;;;;;;;4.20;2.28;;;;;;;;;;5062163;28;20025;-78
2023/05/31 01:49:48;;;;;;;5.45;1.95;;;;;;;;;;5042991;28;20020;-80
2023/05/31 01:52:16;;;;;;;7.18;2.38;;;;;;;;;;5045068;28;20029;-78
2023/05/31 01:54:42;;;;;;;3.13;1.77;;;;;;;;;;5046017;28;20100;-78
2023/05/31 01:57:08;;;;;;;7.78;2.55;;;;;;;;;;5064193;28;20515;-79
2023/05/31 01:59:35;;;;;;;4.53;2.03;;;;;;;;;;5063986;28;20028;-79
2023/05/31 02:02:02;;;;;;;3.03;2.20;;;;;;;;;;5045124;28;20025;-79
2023/05/31 02:04:27;;;;;;;5.03;2.13;;;;;;;;;;5062983;28;20166;-79
2023/05/31 02:06:53;;;;;;;5.10;1.88;;;;;;;;;;5062095;28;20028;-78
2023/05/31 02:09:19;;;;;;;5.25;2.10;;;;;;;;;;5063520;28;20067;-80
2023/05/31 02:11:45;;;;;;;3.53;1.90;;;;;;;;;;5062575;28;20068;-79
2023/05/31 02:14:10;;;;;;;3.17;1.83;;;;;;;;;;5062892;28;20074;-79
2023/05/31 02:16:35;;;;;;;5.00;2.25;;;;;;;;;;5063589;28;20246;-79
2023/05/31 02:19:02;;;;;;;7.93;2.20;;;;;;;;;;5064761;28;20032;-79
2023/05/31 02:21:27;;;;;;;4.93;2.20;;;;;;;;;;5046415;28;20284;-79
2023/05/31 02:23:53;;;;;;;4.35;2.10;;;;;;;;;;5063954;28;20029;-79
2023/05/31 02:26:19;;;;;;;3.80;1.90;;;;;;;;;;5063657;28;20031;-79
2023/05/31 02:28:44;;;;;;;3.90;1.92;;;;;;;;;;5062874;28;20336;-80
2023/05/31 02:31:09;;;;;;;4.10;2.00;;;;;;;;;;5063168;28;20020;-80
2023/05/31 02:33:35;;;;;;;9.02;2.00;;;;;;;;;;5044964;28;20029;-78
2023/05/31 02:36:01;;;;;;;4.15;1.90;;;;;;;;;;5058342;28;20066;-78
2023/05/31 02:38:26;;;;;;;5.85;2.45;;;;;;;;;;5044375;28;20025;-80
2023/05/31 02:40:52;;;;;;;3.60;2.00;;;;;;;;;;5044035;28;20510;-78
2023/05/31 02:43:17;;;;;;;4.25;1.80;;;;;;;;;;5057782;28;20032;-78
2023/05/31 02:45:42;;;;;;;3.75;2.00;;;;;;;;;;5058557;28;20032;-79
2023/05/31 02:48:07;;;;;;;3.40;1.83;;;;;;;;;;5058870;28;20033;-78
2023/05/31 02:50:33;;;;;;;3.03;1.85;;;;;;;;;;5060788;28;20266;-78
2023/05/31 02:53:00;;;;;;;4.35;2.17;;;;;;;;;;5044406;28;20088;-77
2023/05/31 02:55:25;;;;;;;5.53;1.70;;;;;;;;;;5062004;28;20025;-79
2023/05/31 02:57:51;;;;;;;6.28;2.03;;;;;;;;;;5043472;28;20021;-79
2023/05/31 03:00:17;;;;;;;4.60;2.08;;;;;;;;;;5061957;28;20037;-78
2023/05/31 03:02:43;;;;;;;6.45;2.25;;;;;;;;;;5040836;28;20070;-78
2023/05/31 03:05:09;;;;;;;3.38;2.03;;;;;;;;;;5061263;28;20108;-78
2023/05/31 03:07:35;;;;;;;4.43;2.00;;;;;;;;;;5042273;28;20117;-78
2023/05/31 03:10:00;;;;;;;4.85;2.25;;;;;;;;;;5061065;28;20115;-79
2023/05/31 03:12:26;;;;;;;4.00;2.08;;;;;;;;;;5045454;28;20059;-79
2023/05/31 03:14:51;;;;;;;6.65;2.28;;;;;;;;;;5059884;28;20107;-78
2023/05/31 03:17:16;;;;;;;3.47;2.20;;;;;;;;;;5059575;28;20433;-77
2023/05/31 03:19:42;;;;;;;6.88;2.20;;;;;;;;;;5061479;28;20025;-78
2023/05/31 03:22:07;;;;;;;10.70;2.40;;;;;;;;;;5061862;28;20053;-79
2023/05/31 03:24:32;;;;;;;4.50;2.00;;;;;;;;;;5061214;28;20266;-79
2023/05/31 03:26:57;;;;;;;4.67;2.00;;;;;;;;;;5060620;28;20278;-78
2023/05/31 03:29:22;;;;;;;6.83;1.87;;;;;;;;;;5041853;28;20289;-79
2023/05/31 03:31:48;;;;;;;3.00;1.70;;;;;;;;;;5061368;28;20270;-78
2023/05/31 03:34:13;;;;;;;3.90;1.90;;;;;;;;;;5060982;28;20258;-78
2023/05/31 03:36:38;;;;;;;6.63;2.20;;;;;;;;;;5059563;28;20108;-78
2023/05/31 03:39:03;;;;;;;10.20;2.10;;;;;;;;;;5056652;28;20028;-78
2023/05/31 03:41:29;;;;;;;3.55;2.00;;;;;;;;;;5060757;28;20264;-79
2023/05/31 03:43:55;;;;;;;6.53;1.90;;;;;;;;;;5042152;28;20400;-78
2023/05/31 03:46:20;;;;;;;2.80;1.98;;;;;;;;;;5059935;28;20027;-79
2023/05/31 03:48:46;;;;;;;5.75;2.20;;;;;;;;;;5058578;28;20025;-79
2023/05/31 03:51:11;;;;;;;3.63;1.98;;;;;;;;;;5043813;28;20033;-79
2023/05/31 03:53:37;;;;;;;3.55;2.10;;;;;;;;;;5042556;28;20033;-79
2023/05/31 03:56:02;;;;;;;3.60;2.00;;;;;;;;;;5058376;28;20029;-78
2023/05/31 03:58:27;;;;;;;5.78;2.22;;;;;;;;;;5063076;28;20067;-79
2023/05/31 04:00:52;;;;;;;4.17;2.10;;;;;;;;;;5066650;28;20029;-78
2023/05/31 04:03:18;;;;;;;4.70;1.93;;;;;;;;;;5047249;28;20299;-79
2023/05/31 04:05:43;;;;;;;6.72;2.38;;;;;;;;;;5064471;28;20331;-80
2023/05/31 04:08:08;;;;;;;4.57;2.10;;;;;;;;;;5065548;28;20039;-80
2023/05/31 04:10:34;;;;;;;3.97;2.13;;;;;;;;;;5066859;28;20036;-80
2023/05/31 04:12:59;;;;;;;7.28;1.92;;;;;;;;;;5065731;28;20025;-80
2023/05/31 04:15:25;;;;;;;5.25;2.17;;;;;;;;;;5044759;28;20033;-80
2023/05/31 04:17:51;;;;;;;3.90;2.28;;;;;;;;;;5046307;28;20027;-80
2023/05/31 04:20:16;;;;;;;6.68;1.63;;;;;;;;;;5065629;28;20029;-80
2023/05/31 04:22:42;;;;;;;4.50;1.98;;;;;;;;;;5065607;28;20123;-80
2023/05/31 04:25:08;;;;;;;7.22;2.20;;;;;;;;;;5065278;28;20037;-78
2023/05/31 04:27:38;;;;;;;5.78;2.30;;;;;;;;;;5047869;28;20043;-79
2023/05/31 04:30:06;;;;;;;3.25;2.03;;;;;;;;;;5047481;28;20412;-79
2023/05/31 04:32:41;;;;;;;4.00;1.98;;;;;;;;;;5065046;28;20084;-79
2023/05/31 04:35:08;;;;;;;4.22;2.05;;;;;;;;;;5047248;28;20070;-79
2023/05/31 04:37:33;;;;;;;3.65;1.92;;;;;;;;;;5065243;28;20020;-78
2023/05/31 04:39:59;;;;;;;4.88;2.20;;;;;;;;;;5047564;28;20116;-80
2023/05/31 04:42:25;;;;;;;3.03;1.90;;;;;;;;;;5065815;28;20033;-79
2023/05/31 04:44:57;;;;;;;5.38;2.22;;;;;;;;;;5066712;28;20028;-79
2023/05/31 04:47:29;;;;;;;6.93;2.13;;;;;;;;;;5047903;28;20032;-80
2023/05/31 04:49:56;;;;;;;4.82;2.03;;;;;;;;;;5065769;28;20028;-79
2023/05/31 04:52:29;;;;;;;4.68;1.92;;;;;;;;;;5064406;28;20033;-80
2023/05/31 04:54:55;;;;;;;4.82;1.88;;;;;;;;;;5062811;28;20036;-79
2023/05/31 04:57:22;;;;;;;3.75;2.13;;;;;;;;;;5043817;28;20039;-78
2023/05/31 04:59:47;;;;;;;3.92;2.20;;;;;;;;;;5043264;28;20080;-79
2023/05/31 05:02:12;;;;;;;5.03;2.13;;;;;;;;;;5044680;28;20036;-79
2023/05/31 05:04:37;;;;;;;7.67;2.10;;;;;;;;;;5043478;28;20033;-78
2023/05/31 05:07:03;;;;;;;4.17;2.60;;;;;;;;;;5042524;28;20377;-79
2023/05/31 05:09:28;;;;;;;3.75;1.95;;;;;;;;;;5044181;28;20297;-79
2023/05/31 05:11:54;;;;;;;4.87;2.27;;;;;;;;;;5045236;28;20123;-79
2023/05/31 05:14:19;;;;;;;7.00;2.67;;;;;;;;;;5045147;28;20254;-79
2023/05/31 05:16:45;;;;;;;4.78;2.22;;;;;;;;;;5063086;28;20100;-80
2023/05/31 05:19:10;;;;;;;5.82;2.30;;;;;;;;;;5064126;28;20036;-80
2023/05/31 05:21:35;;;;;;;5.25;2.20;;;;;;;;;;5046710;28;20047;-80
2023/05/31 05:24:00;;;;;;;3.73;2.10;;;;;;;;;;5063040;28;20025;-79
2023/05/31 05:26:26;;;;;;;3.20;2.00;;;;;;;;;;5045034;28;20815;-79
2023/05/31 05:28:52;;;;;;;5.35;2.20;;;;;;;;;;5061632;28;20627;-80
2023/05/31 05:31:17;;;;;;;7.73;2.10;;;;;;;;;;5063416;28;20099;-79
2023/05/31 05:33:42;;;;;;;5.00;1.80;;;;;;;;;;5063860;28;20313;-79
2023/05/31 05:36:07;;;;;;;9.67;2.10;;;;;;;;;;5045276;28;20056;-80
2023/05/31 05:38:33;;;;;;;6.32;2.25;;;;;;;;;;5062014;28;20262;-78
2023/05/31 05:40:58;;;;;;;3.95;2.05;;;;;;;;;;5045406;28;20039;-80
2023/05/31 05:43:23;;;;;;;4.50;2.20;;;;;;;;;;5062911;28;20036;-79
2023/05/31 05:45:48;;;;;;;9.63;2.10;;;;;;;;;;5064685;28;20278;-79
2023/05/31 05:48:14;;;;;;;5.68;2.20;;;;;;;;;;5062223;28;20269;-79
2023/05/31 05:50:39;;;;;;;3.78;2.20;;;;;;;;;;5061522;28;20106;-80
2023/05/31 05:53:04;;;;;;;6.65;2.28;;;;;;;;;;5041044;28;20051;-79
2023/05/31 05:55:30;;;;;;;5.30;2.47;;;;;;;;;;5058783;28;20017;-78
2023/05/31 05:57:55;;;;;;;4.77;2.27;;;;;;;;;;5060012;28;20258;-78
2023/05/31 06:00:21;;;;;;;5.78;2.50;;;;;;;;;;5059808;28;20781;-78
2023/05/31 06:02:46;;;;;;;4.35;2.10;;;;;;;;;;5058597;28;20108;-78
2023/05/31 06:05:12;;;;;;;6.03;2.43;;;;;;;;;;5059382;28;20051;-78
2023/05/31 06:07:37;;;;;;;4.28;2.40;;;;;;;;;;5042036;28;20254;-80
2023/05/31 06:10:03;;;;;;;7.68;2.10;;;;;;;;;;5059202;28;20032;-79
2023/05/31 06:12:30;;;;;;;6.28;2.10;;;;;;;;;;5058964;28;20499;-80
2023/05/31 06:14:55;;;;;;;3.65;2.13;;;;;;;;;;5058957;28;20052;-79
2023/05/31 06:17:20;;;;;;;6.93;2.03;;;;;;;;;;5058679;28;20477;-79
2023/05/31 06:19:46;;;;;;;8.68;2.55;;;;;;;;;;5058675;28;20286;-79
2023/05/31 06:22:11;;;;;;;4.90;2.17;;;;;;;;;;5040742;28;20128;-78
2023/05/31 06:24:36;;;;;;;6.80;2.47;;;;;;;;;;5040677;28;20277;-79
2023/05/31 06:27:02;;;;;;;5.85;2.22;;;;;;;;;;5057875;28;20278;-78
2023/05/31 06:29:28;;;;;;;8.50;2.30;;;;;;;;;;5058164;28;20420;-80
2023/05/31 06:31:53;;;;;;;7.00;2.33;;;;;;;;;;5058898;28;20033;-79
2023/05/31 06:34:18;;;;;;;5.93;2.28;;;;;;;;;;5058138;28;20196;-79
2023/05/31 06:36:43;;;;;;;6.15;2.55;;;;;;;;;;5058334;28;20044;-78
2023/05/31 06:39:09;;;;;;;7.10;2.50;;;;;;;;;;5039569;28;20024;-79
2023/05/31 06:41:34;;;;;;;3.80;2.20;;;;;;;;;;5057432;28;20075;-78
2023/05/31 06:44:01;;;;;;;7.35;3.13;;;;;;;;;;5056844;28;20025;-79
2023/05/31 06:46:27;;;;;;;7.38;2.05;;;;;;;;;;5039697;28;20381;-77
2023/05/31 06:48:52;;;;;;;10.23;2.33;;;;;;;;;;5057863;28;20025;-79
2023/05/31 06:51:19;;;;;;;6.07;2.23;;;;;;;;;;5059663;28;20031;-79
2023/05/31 06:53:44;;;;;;;7.82;2.30;;;;;;;;;;5059598;28;20260;-79
2023/05/31 06:56:09;;;;;;;6.25;1.85;;;;;;;;;;5059212;28;20021;-78
2023/05/31 06:58:35;;;;;;;6.10;2.00;;;;;;;;;;5059863;28;20033;-79
2023/05/31 07:01:01;;;;;;;5.72;2.15;;;;;;;;;;5060768;28;20045;-78
2023/05/31 07:03:59;;;;;;;8.05;2.10;;;;;;;;;;5040111;28;20571;-84
2023/05/31 07:06:25;;;;;;;4.57;1.90;;;;;;;;;;5030262;28;20029;-78
2023/05/31 07:08:51;;;;;;;3.85;2.13;;;;;;;;;;5058430;28;20092;-79
2023/05/31 07:11:16;;;;;;;4.70;2.10;;;;;;;;;;5055438;28;20028;-78
2023/05/31 07:13:50;;;;;;;8.67;2.50;;;;;;;;;;5055494;28;20021;-78
2023/05/31 07:16:15;;;;;;;6.32;2.00;;;;;;;;;;5055526;28;20300;-78
2023/05/31 07:18:45;;;;;;;6.60;1.90;;;;;;;;;;5056414;28;20029;-78
2023/05/31 07:21:14;;;;;;;4.55;1.90;;;;;;;;;;5057211;28;20296;-77
2023/05/31 07:23:42;;;;;;;3.75;1.90;;;;;;;;;;5055449;28;20025;-78
2023/05/31 07:26:07;;;;;;;5.60;2.10;;;;;;;;;;5055458;28;20060;-79
2023/05/31 07:28:32;;;;;;;4.72;2.08;;;;;;;;;;5057498;28;20075;-79
2023/05/31 07:30:57;;;;;;;5.60;2.00;;;;;;;;;;5057059;28;20024;-79
2023/05/31 07:33:23;;;;;;;7.03;2.13;;;;;;;;;;5041109;28;20257;-80
2023/05/31 07:35:48;;;;;;;5.47;2.13;;;;;;;;;;5043707;28;20262;-80
2023/05/31 07:38:13;;;;;;;5.00;2.40;;;;;;;;;;5043277;28;20024;-79
2023/05/31 07:40:39;;;;;;;7.68;2.28;;;;;;;;;;5061082;28;20266;-80
2023/05/31 07:43:04;;;;;;;4.63;2.00;;;;;;;;;;5060283;28;20525;-79
2023/05/31 07:45:29;;;;;;;3.97;2.10;;;;;;;;;;5060238;28;20500;-80
2023/05/31 07:47:55;;;;;;;9.20;2.00;;;;;;;;;;5060432;28;20639;-79
2023/05/31 07:50:20;;;;;;;6.63;1.67;;;;;;;;;;5059770;28;20676;-81
2023/05/31 07:52:49;;;;;;;7.28;2.00;;;;;;;;;;5060124;28;20059;-80
2023/05/31 07:55:14;;;;;;;4.22;1.73;;;;;;;;;;5059886;28;20029;-81
2023/05/31 07:57:39;;;;;;;4.88;1.63;;;;;;;;;;5043508;28;20032;-80
2023/05/31 08:00:05;;;;;;;3.42;1.83;;;;;;;;;;5061248;28;20052;-81
2023/05/31 08:02:31;;;;;;;4.13;2.13;;;;;;;;;;5061400;28;20090;-80
2023/05/31 08:05:01;;;;;;;9.23;1.83;;;;;;;;;;5060850;28;20033;-80
2023/05/31 08:07:27;;;;;;;4.90;1.77;;;;;;;;;;5060449;28;20319;-80
2023/05/31 08:09:52;;;;;;;5.07;2.03;;;;;;;;;;5060990;28;20017;-82
2023/05/31 08:12:17;;;;;;;9.15;1.70;;;;;;;;;;5061645;28;20021;-81
2023/05/31 08:14:43;;;;;;;5.20;2.00;;;;;;;;;;5062213;28;20032;-79
2023/05/31 08:17:09;;;;;;;3.60;1.52;;;;;;;;;;5061977;28;20801;-82
2023/05/31 08:19:34;;;;;;;3.72;1.75;;;;;;;;;;5061628;28;20049;-81
2023/05/31 08:22:00;;;;;;;4.93;1.65;;;;;;;;;;5043466;28;20357;-81
2023/05/31 08:24:25;;;;;;;5.63;1.70;;;;;;;;;;5061966;28;20036;-81
2023/05/31 08:26:51;;;;;;;7.20;2.00;;;;;;;;;;5062274;28;20066;-80
2023/05/31 08:29:16;;;;;;;4.85;1.52;;;;;;;;;;5045312;28;20055;-81
2023/05/31 08:31:41;;;;;;;6.07;1.92;;;;;;;;;;5062132;28;20105;-80
2023/05/31 08:34:07;;;;;;;4.07;1.90;;;;;;;;;;5062958;28;20514;-82
2023/05/31 08:36:32;;;;;;;4.35;1.60;;;;;;;;;;5062431;28;20055;-81
2023/05/31 08:38:58;;;;;;;3.97;1.70;;;;;;;;;;5062574;28;20035;-79
2023/05/31 08:41:25;;;;;;;6.30;1.80;;;;;;;;;;5061720;28;20025;-81
2023/05/31 08:43:50;;;;;;;3.15;1.55;;;;;;;;;;5065140;28;20149;-81
2023/05/31 08:46:17;;;;;;;3.58;1.60;;;;;;;;;;5065708;28;20048;-80
2023/05/31 08:49:03;;;;;;;4.90;1.45;;;;;;;;;;5047909;28;20024;-81
2023/05/31 08:51:28;;;;;;;4.75;1.58;;;;;;;;;;5065082;28;20064;-80
2023/05/31 08:53:56;;;;;;;3.70;1.63;;;;;;;;;;5064852;28;20036;-82
2023/05/31 08:56:23;;;;;;;8.18;1.70;;;;;;;;;;5065841;28;20031;-80
2023/05/31 08:58:50;;;;;;;7.25;1.70;;;;;;;;;;5065621;28;20053;-80
2023/05/31 09:01:18;;;;;;;4.05;1.80;;;;;;;;;;5064710;28;20032;-82
2023/05/31 09:03:44;;;;;;;4.90;1.95;;;;;;;;;;5066731;28;20021;-80
2023/05/31 09:06:10;;;;;;;3.05;1.48;;;;;;;;;;5066381;28;20078;-79
2023/05/31 09:08:36;;;;;;;5.72;1.50;;;;;;;;;;5047928;28;20025;-80
2023/05/31 09:11:01;;;;;;;4.82;1.70;;;;;;;;;;5065662;28;20021;-80
2023/05/31 09:13:26;;;;;;;5.05;1.50;;;;;;;;;;5066230;28;20021;-79
2023/05/31 09:15:52;;;;;;;5.40;1.50;;;;;;;;;;5048850;28;20017;-80
2023/05/31 09:18:22;;;;;;;2.78;1.50;;;;;;;;;;5048081;28;20551;-79
2023/05/31 09:20:48;;;;;;;3.55;1.60;;;;;;;;;;5066050;28;20024;-80
2023/05/31 09:23:16;;;;;;;3.88;1.13;;;;;;;;;;5065984;28;20060;-80
2023/05/31 09:25:44;;;;;;;3.72;1.27;;;;;;;;;;5064105;28;20032;-81
2023/05/31 09:28:11;;;;;;;2.33;1.10;;;;;;;;;;5064517;28;20036;-79
2023/05/31 09:30:37;;;;;;;1.70;1.20;;;;;;;;;;5045963;28;20036;-79
2023/05/31 09:33:02;;;;;;;5.80;1.30;;;;;;;;;;5064007;28;20033;-78
2023/05/31 09:35:27;;;;;;;5.65;1.30;;;;;;;;;;5058463;28;20033;-78
2023/05/31 09:37:53;;;;;;;2.05;1.15;;;;;;;;;;5058528;28;20029;-80
2023/05/31 09:40:26;;;;;;;6.32;1.58;;;;;;;;;;5058476;28;20021;-78
2023/05/31 09:42:54;;;;;;;4.35;1.52;;;;;;;;;;5058408;28;20490;-78
2023/05/31 09:45:20;;;;;;;4.40;1.40;;;;;;;;;;5058790;28;20428;-78
2023/05/31 09:47:46;;;;;;;4.97;1.10;;;;;;;;;;5058673;28;20025;-78
2023/05/31 09:50:15;;;;;;;6.05;1.42;;;;;;;;;;5058048;28;20037;-78
2023/05/31 09:52:43;;;;;;;3.30;1.30;;;;;;;;;;5058570;28;20120;-81
2023/05/31 09:55:09;;;;;;;5.63;1.30;;;;;;;;;;5039171;28;20029;-78
2023/05/31 09:57:40;;;;;;;3.00;1.20;;;;;;;;;;5058489;28;20032;-77
2023/05/31 10:00:14;;;;;;;6.63;1.13;;;;;;;;;;5057713;28;20029;-79
2023/05/31 10:02:44;;;;;;;3.05;1.10;;;;;;;;;;5058040;28;20025;-78
2023/05/31 10:05:11;;;;;;;2.83;1.10;;;;;;;;;;5057565;28;20025;-80
2023/05/31 10:07:38;;;;;;;3.28;1.40;;;;;;;;;;5056625;28;20049;-78
2023/05/31 10:10:04;;;;;;;8.20;1.30;;;;;;;;;;5058061;28;20031;-78
2023/05/31 10:12:33;;;;;;;8.13;1.65;;;;;;;;;;5041408;28;20021;-78
2023/05/31 10:15:06;;;;;;;5.20;1.10;;;;;;;;;;5058398;28;20116;-79
2023/05/31 10:17:39;;;;;;;2.03;1.13;;;;;;;;;;5040350;28;20048;-76
2023/05/31 10:20:07;;;;;;;3.28;1.10;;;;;;;;;;5058488;28;20032;-78
2023/05/31 10:22:38;;;;;;;11.15;1.15;;;;;;;;;;5040473;28;20373;-79
2023/05/31 10:25:09;;;;;;;4.93;1.35;;;;;;;;;;5040848;28;20025;-79
2023/05/31 10:27:38;;;;;;;2.00;1.20;;;;;;;;;;5059271;28;20448;-80
2023/05/31 10:30:04;;;;;;;3.85;1.20;;;;;;;;;;5058563;28;20028;-79
2023/05/31 10:32:33;;;;;;;8.82;1.50;;;;;;;;;;5058836;28;20029;-80
2023/05/31 10:34:59;;;;;;;3.53;1.10;;;;;;;;;;5058207;28;20056;-80
2023/05/31 10:37:25;;;;;;;1.52;1.02;;;;;;;;;;5058511;28;20025;-79
2023/05/31 10:40:10;;;;;;;2.78;1.30;;;;;;;;;;5058356;28;20025;-79
2023/05/31 10:43:08;;;;;;;8.68;1.30;;;;;;;;;;5058418;28;20052;-78
2023/05/31 10:45:48;;;;;;;2.67;1.00;;;;;;;;;;5040352;28;20071;-78
2023/05/31 10:48:26;;;;;;;3.50;1.30;;;;;;;;;;5057898;28;20029;-79
2023/05/31 10:50:52;;;;;;;2.55;1.17;;;;;;;;;;5039623;28;20029;-78
2023/05/31 10:53:17;;;;;;;5.15;1.25;;;;;;;;;;5057784;28;20400;-79
2023/05/31 10:55:44;;;;;;;2.65;1.20;;;;;;;;;;5039665;28;20017;-77
2023/05/31 10:58:28;;;;;;;4.85;1.45;;;;;;;;;;5039545;28;20032;-78
2023/05/31 11:00:55;;;;;;;4.15;1.40;;;;;;;;;;5058485;28;20096;-80
2023/05/31 11:03:22;;;;;;;4.18;1.35;;;;;;;;;;5058490;28;20092;-78
2023/05/31 11:06:03;;;;;;;2.85;1.20;;;;;;;;;;5056926;28;20104;-78
2023/05/31 11:08:29;;;;;;;2.35;1.20;;;;;;;;;;5039594;28;20032;-79
2023/05/31 11:11:25;;;;;;;3.20;1.20;;;;;;;;;;5057804;28;20029;-77
2023/05/31 11:14:04;;;;;;;3.75;1.20;;;;;;;;;;5057481;28;20021;-78
2023/05/31 11:16:32;;;;;;;1.88;1.30;;;;;;;;;;5057076;28;20357;-79
2023/05/31 11:19:06;;;;;;;3.05;1.20;;;;;;;;;;5057113;28;20047;-78
2023/05/31 11:21:50;;;;;;;;;;;;;;;;;;5039290;28;20035;-79
2023/05/31 11:24:29;;;;;;;3.50;1.20;;;;;;;;;;5038607;28;19921;-78
2023/05/31 11:26:56;;;;;;;1.75;1.23;;;;;;;;;;5039010;28;20029;-79
2023/05/31 11:29:22;;;;;;;3.75;1.30;;;;;;;;;;5057508;28;20048;-81
2023/05/31 11:31:50;;;;;;;3.97;1.45;;;;;;;;;;5038922;28;20553;-80
2023/05/31 11:34:21;;;;;;;3.10;1.40;;;;;;;;;;5057398;28;20025;-79
2023/05/31 11:36:46;;;;;;;2.75;1.60;;;;;;;;;;5056870;28;20029;-80
2023/05/31 11:39:11;;;;;;;5.03;1.50;;;;;;;;;;5039821;28;20031;-79
2023/05/31 11:41:37;;;;;;;4.88;1.38;;;;;;;;;;5057627;28;20104;-78
2023/05/31 11:44:04;;;;;;;4.03;1.27;;;;;;;;;;5039164;28;20436;-78
2023/05/31 11:46:30;;;;;;;3.20;1.30;;;;;;;;;;5057765;28;20645;-80
2023/05/31 11:48:57;;;;;;;2.40;1.40;;;;;;;;;;5059726;28;20033;-78
2023/05/31 11:51:23;;;;;;;4.40;1.20;;;;;;;;;;5058712;28;20083;-79
2023/05/31 11:53:48;;;;;;;4.22;1.40;;;;;;;;;;5059513;28;20095;-80
2023/05/31 11:56:14;;;;;;;3.77;1.30;;;;;;;;;;5058593;28;20028;-79
2023/05/31 11:58:45;;;;;;;5.40;1.30;;;;;;;;;;5058946;28;20665;-79
2023/05/31 12:01:13;;;;;;;6.65;1.50;;;;;;;;;;5058616;28;20075;-79
2023/05/31 12:03:39;;;;;;;2.42;1.30;;;;;;;;;;5057221;28;20108;-78
2023/05/31 12:06:05;;;;;;;2.83;1.23;;;;;;;;;;5057122;28;20025;-78
2023/05/31 12:08:31;;;;;;;3.20;1.75;;;;;;;;;;5057639;28;20048;-79
2023/05/31 12:11:02;;;;;;;3.38;1.38;;;;;;;;;;5057498;28;20392;-80
2023/05/31 12:13:28;;;;;;;2.63;1.35;;;;;;;;;;5057320;28;20104;-80
2023/05/31 12:15:54;;;;;;;2.55;1.40;;;;;;;;;;5057272;28;20479;-80
2023/05/31 12:18:20;;;;;;;3.20;1.23;;;;;;;;;;5060577;28;20032;-80
2023/05/31 12:20:45;;;;;;;2.90;1.27;;;;;;;;;;5061870;28;20380;-78
2023/05/31 12:23:12;;;;;;;6.10;1.20;;;;;;;;;;5063605;28;20480;-79
2023/05/31 12:25:44;;;;;;;3.20;1.27;;;;;;;;;;5060787;28;20507;-79
2023/05/31 12:28:10;;;;;;;2.50;1.25;;;;;;;;;;5060933;28;20031;-78
2023/05/31 12:30:43;;;;;;;2.78;1.40;;;;;;;;;;5060950;28;20028;-78
2023/05/31 12:33:10;;;;;;;7.23;1.70;;;;;;;;;;5061276;28;20423;-79
2023/05/31 12:35:42;;;;;;;1.55;1.13;;;;;;;;;;5061209;28;20542;-79
2023/05/31 12:38:08;;;;;;;3.35;1.42;;;;;;;;;;5042409;28;20033;-79
2023/05/31 12:40:38;;;;;;;3.58;1.33;;;;;;;;;;5043741;28;20035;-78
2023/05/31 12:43:03;;;;;;;3.55;1.40;;;;;;;;;;5062410;28;20096;-79
2023/05/31 12:45:29;;;;;;;3.67;1.50;;;;;;;;;;5062130;28;20063;-80
2023/05/31 12:47:58;;;;;;;5.47;2.45;;;;;;;;;;5061964;28;20032;-78
2023/05/31 12:50:27;;;;;;;4.03;1.50;;;;;;;;;;5042642;28;20056;-79
2023/05/31 12:52:58;;;;;;;3.55;1.38;;;;;;;;;;5062499;28;20048;-79
2023/05/31 12:55:24;;;;;;;4.50;1.52;;;;;;;;;;5043618;28;20493;-79
2023/05/31 12:57:51;;;;;;;3.40;1.40;;;;;;;;;;5061375;28;20028;-78
2023/05/31 13:00:16;;;;;;;3.65;1.40;;;;;;;;;;5043224;28;20025;-79
2023/05/31 13:02:42;;;;;;;2.72;1.30;;;;;;;;;;5061575;28;20037;-78
2023/05/31 13:05:07;;;;;;;4.57;1.25;;;;;;;;;;5043200;28;20058;-80
2023/05/31 13:07:34;;;;;;;6.03;1.48;;;;;;;;;;5060204;28;20042;-78
2023/05/31 13:09:59;;;;;;;4.82;1.25;;;;;;;;;;5042645;28;20035;-79
2023/05/31 13:12:25;;;;;;;6.57;1.38;;;;;;;;;;5060800;28;20017;-79
2023/05/31 13:14:52;;;;;;;4.07;1.60;;;;;;;;;;5060399;28;20484;-79
2023/05/31 13:17:17;;;;;;;2.78;1.30;;;;;;;;;;5060494;28;20129;-78
2023/05/31 13:19:43;;;;;;;3.17;1.35;;;;;;;;;;5060152;28;20077;-80
2023/05/31 13:22:08;;;;;;;3.95;1.90;;;;;;;;;;5059536;28;20491;-78
2023/05/31 13:24:34;;;;;;;2.58;1.30;;;;;;;;;;5059073;28;20060;-78
2023/05/31 13:26:59;;;;;;;3.83;1.33;;;;;;;;;;5059782;28;20032;-80
2023/05/31 13:29:25;;;;;;;6.75;1.60;;;;;;;;;;5058596;28;20468;-79
2023/05/31 13:31:51;;;;;;;2.70;1.40;;;;;;;;;;5060558;28;20036;-79
2023/05/31 13:34:17;;;;;;;9.10;1.70;;;;;;;;;;5059231;28;20044;-80
2023/05/31 13:36:42;;;;;;;1.73;1.40;;;;;;;;;;5061274;28;20365;-77
2023/05/31 13:39:07;;;;;;;3.15;1.42;;;;;;;;;;5059874;28;20024;-77
2023/05/31 13:41:33;;;;;;;4.93;1.60;;;;;;;;;;5059330;28;20063;-80
2023/05/31 13:43:58;;;;;;;5.43;1.50;;;;;;;;;;5059034;28;20082;-79
2023/05/31 13:46:24;;;;;;;4.30;1.20;;;;;;;;;;5059433;28;20035;-80
2023/05/31 13:48:51;;;;;;;5.72;1.52;;;;;;;;;;5058739;28;20431;-78
2023/05/31 13:51:17;;;;;;;7.32;1.42;;;;;;;;;;5040390;28;20032;-78
2023/05/31 13:53:42;;;;;;;4.57;1.60;;;;;;;;;;5059519;28;20029;-79
2023/05/31 13:56:08;;;;;;;2.88;1.50;;;;;;;;;;5041241;28;20484;-79
2023/05/31 13:58:37;;;;;;;3.38;1.58;;;;;;;;;;5041320;28;20112;-79
2023/05/31 14:01:10;;;;;;;2.47;1.38;;;;;;;;;;5041436;28;20380;-79
2023/05/31 14:03:39;;;;;;;4.20;1.45;;;;;;;;;;5040993;28;20021;-78
2023/05/31 14:06:05;;;;;;;3.42;1.35;;;;;;;;;;5042049;28;20086;-79
2023/05/31 14:08:31;;;;;;;2.78;1.38;;;;;;;;;;5059849;28;20025;-78
2023/05/31 14:10:57;;;;;;;3.65;1.60;;;;;;;;;;5059408;28;20021;-78
2023/05/31 14:13:22;;;;;;;4.60;1.40;;;;;;;;;;5041124;28;20028;-78
2023/05/31 14:15:48;;;;;;;4.70;1.50;;;;;;;;;;5058420;28;20029;-78
2023/05/31 14:18:13;;;;;;;4.75;1.77;;;;;;;;;;5058227;28;20331;-81
2023/05/31 14:20:39;;;;;;;8.48;1.73;;;;;;;;;;5058242;28;20104;-77
2023/05/31 14:23:04;;;;;;;2.73;1.47;;;;;;;;;;5059090;28;20116;-79
2023/05/31 14:25:30;;;;;;;6.18;1.95;;;;;;;;;;5041422;28;20698;-80
2023/05/31 14:27:55;;;;;;;3.90;1.58;;;;;;;;;;5058871;28;20025;-79
2023/05/31 14:30:21;;;;;;;3.28;1.38;;;;;;;;;;5059070;28;20036;-78
2023/05/31 14:32:46;;;;;;;4.78;1.58;;;;;;;;;;5059045;28;20073;-79
2023/05/31 14:35:12;;;;;;;3.40;1.70;;;;;;;;;;5059650;28;20032;-79
2023/05/31 14:37:38;;;;;;;6.68;1.73;;;;;;;;;;5058269;28;20025;-75
2023/05/31 14:40:04;;;;;;;2.97;1.50;;;;;;;;;;5058399;28;20045;-79
2023/05/31 14:42:30;;;;;;;5.07;1.70;;;;;;;;;;5040507;28;20055;-78